createdAt,value
2023-04-10T00:01:56.509Z,71.11
2023-04-10T00:03:58.989Z,71.42
2023-04-10T00:06:01.087Z,71.84
2023-04-10T00:08:04.750Z,71.58
2023-04-10T00:10:07.261Z,71.70
2023-04-10T00:12:09.178Z,72.19
2023-04-10T00:14:10.700Z,71.90
2023-04-10T00:16:12.411Z,72.57
2023-04-10T00:18:14.536Z,72.35
2023-04-10T00:20:16.476Z,72.03
2023-04-10T00:22:18.514Z,72.33
2023-04-10T00:24:21.698Z,72.29
2023-04-10T00:26:23.331Z,71.83
2023-04-10T00:28:24.946Z,71.93
2023-04-10T00:30:27.075Z,71.86
2023-04-10T00:32:28.648Z,71.33
2023-04-10T00:34:30.287Z,71.64
2023-04-10T00:36:31.877Z,71.75
2023-04-10T00:38:33.863Z,71.03
2023-04-10T00:40:36.837Z,71.71
2023-04-10T00:42:38.774Z,71.88
2023-04-10T00:44:41.941Z,71.86
2023-04-10T00:46:43.740Z,71.27
2023-04-10T00:48:45.489Z,71.79
2023-04-10T00:50:47.229Z,71.83
2023-04-10T00:52:50.066Z,71.73
2023-04-10T00:54:52.273Z,71.76
2023-04-10T00:56:59.185Z,71.46
2023-04-10T00:59:01.149Z,71.58
2023-04-10T01:01:03.877Z,70.87
2023-04-10T01:03:06.374Z,70.80
2023-04-10T01:05:09.066Z,71.81
2023-04-10T01:07:19.585Z,71.40
2023-04-10T01:09:33.126Z,70.94
2023-04-10T01:11:49.206Z,71.31
2023-04-10T01:14:02.726Z,70.64
2023-04-10T01:16:09.525Z,70.66
2023-04-10T01:18:19.529Z,71.07
2023-04-10T01:20:23.630Z,71.38
2023-04-10T01:22:28.771Z,71.55
2023-04-10T01:24:50.554Z,70.48
2023-04-10T01:27:04.429Z,71.07
2023-04-10T01:29:09.994Z,70.99
2023-04-10T01:31:17.387Z,70.69
2023-04-10T01:33:21.368Z,70.79
2023-04-10T01:35:24.341Z,71.60
2023-04-10T01:37:29.324Z,70.62
2023-04-10T01:39:35.455Z,71.43
2023-04-10T01:41:41.510Z,70.51
2023-04-10T01:43:43.588Z,70.79
2023-04-10T01:45:52.655Z,70.24
2023-04-10T01:47:55.542Z,70.36
2023-04-10T01:49:58.581Z,71.06
2023-04-10T01:52:00.869Z,71.10
2023-04-10T01:54:05.155Z,70.95
2023-04-10T01:56:09.177Z,71.11
2023-04-10T01:58:11.273Z,71.38
2023-04-10T02:00:13.953Z,71.04
2023-04-10T02:02:17.507Z,71.50
2023-04-10T02:04:19.665Z,71.48
2023-04-10T02:06:29.546Z,71.06
2023-04-10T02:08:36.492Z,71.02
2023-04-10T02:10:43.856Z,71.00
2023-04-10T02:12:48.881Z,72.06
2023-04-10T02:14:53.473Z,71.90
2023-04-10T02:16:56.624Z,71.77
2023-04-10T02:19:02.478Z,72.11
2023-04-10T02:21:05.140Z,72.19
2023-04-10T02:23:09.130Z,72.18
2023-04-10T02:25:11.472Z,71.63
2023-04-10T02:27:13.111Z,72.20
2023-04-10T02:29:14.957Z,72.07
2023-04-10T02:31:16.854Z,72.05
2023-04-10T02:33:19.066Z,72.04
2023-04-10T02:35:23.483Z,72.17
2023-04-10T02:37:25.481Z,72.25
2023-04-10T02:39:27.278Z,72.39
2023-04-10T02:41:28.835Z,72.30
2023-04-10T02:43:30.666Z,72.94
2023-04-10T02:45:32.192Z,72.86
2023-04-10T02:47:34.337Z,72.11
2023-04-10T02:49:36.105Z,72.43
2023-04-10T02:51:39.350Z,72.28
2023-04-10T02:53:41.038Z,72.17
2023-04-10T02:55:42.680Z,72.48
2023-04-10T02:57:44.453Z,72.55
2023-04-10T02:59:46.426Z,72.49
2023-04-10T03:01:48.419Z,72.43
2023-04-10T03:03:50.363Z,72.95
2023-04-10T03:05:51.961Z,72.26
2023-04-10T03:07:55.175Z,72.47
2023-04-10T03:09:57.040Z,73.36
2023-04-10T03:11:58.887Z,72.50
2023-04-10T03:14:00.577Z,73.31
2023-04-10T03:16:02.453Z,72.76
2023-04-10T03:18:04.792Z,73.25
2023-04-10T03:20:08.217Z,73.44
2023-04-10T03:22:09.824Z,73.16
2023-04-10T03:24:13.249Z,73.17
2023-04-10T03:26:18.336Z,72.88
2023-04-10T03:28:19.952Z,73.24
2023-04-10T03:30:22.085Z,73.49
2023-04-10T03:32:23.788Z,73.14
2023-04-10T03:34:25.356Z,73.87
2023-04-10T03:36:26.927Z,73.54
2023-04-10T03:38:28.477Z,73.48
2023-04-10T03:40:31.580Z,73.03
2023-04-10T03:42:33.429Z,72.83
2023-04-10T03:44:35.032Z,72.57
2023-04-10T03:46:36.851Z,72.62
2023-04-10T03:48:38.700Z,72.98
2023-04-10T03:50:40.449Z,72.17
2023-04-10T03:52:42.294Z,72.67
2023-04-10T03:54:44.104Z,72.50
2023-04-10T03:56:47.187Z,72.36
2023-04-10T03:58:48.836Z,72.96
2023-04-10T04:00:50.615Z,72.95
2023-04-10T04:02:52.647Z,72.95
2023-04-10T04:04:54.862Z,72.94
2023-04-10T04:06:58.164Z,72.24
2023-04-10T04:09:00.066Z,72.02
2023-04-10T04:11:02.027Z,72.22
2023-04-10T04:13:04.980Z,71.83
2023-04-10T04:15:08.107Z,71.90
2023-04-10T04:17:09.981Z,72.13
2023-04-10T04:19:11.623Z,71.80
2023-04-10T04:21:13.251Z,72.50
2023-04-10T04:23:14.932Z,71.75
2023-04-10T04:25:17.219Z,72.49
2023-04-10T04:27:18.826Z,72.09
2023-04-10T04:29:22.000Z,71.84
2023-04-10T04:31:23.884Z,71.82
2023-04-10T04:33:25.927Z,72.64
2023-04-10T04:35:27.797Z,72.20
2023-04-10T04:37:29.592Z,72.93
2023-04-10T04:39:31.813Z,72.95
2023-04-10T04:41:33.700Z,73.10
2023-04-10T04:43:35.320Z,72.88
2023-04-10T04:45:38.390Z,73.40
2023-04-10T04:47:39.978Z,73.49
2023-04-10T04:49:41.646Z,73.11
2023-04-10T04:51:44.473Z,73.60
2023-04-10T04:53:47.414Z,74.32
2023-04-10T04:55:49.211Z,74.38
2023-04-10T04:57:51.468Z,73.86
2023-04-10T04:59:53.362Z,74.42
2023-04-10T05:01:56.791Z,74.97
2023-04-10T05:04:01.098Z,74.72
2023-04-10T05:06:05.189Z,75.29
2023-04-10T05:08:06.842Z,74.78
2023-04-10T05:10:10.706Z,75.40
2023-04-10T05:12:17.933Z,75.11
2023-04-10T05:14:21.298Z,75.21
2023-04-10T05:16:22.899Z,74.99
2023-04-10T05:18:26.169Z,75.85
2023-04-10T05:20:28.123Z,75.90
2023-04-10T05:22:29.710Z,76.14
2023-04-10T05:24:33.737Z,75.81
2023-04-10T05:26:35.474Z,76.13
2023-04-10T05:28:37.337Z,75.93
2023-04-10T05:30:39.312Z,76.29
2023-04-10T05:32:41.434Z,76.50
2023-04-10T05:34:44.660Z,76.42
2023-04-10T05:36:46.320Z,76.06
2023-04-10T05:38:47.949Z,77.07
2023-04-10T05:40:49.487Z,76.65
2023-04-10T05:42:51.059Z,76.72
2023-04-10T05:44:53.258Z,77.29
2023-04-10T05:46:55.608Z,76.73
2023-04-10T05:48:57.468Z,77.06
2023-04-10T05:51:00.485Z,77.84
2023-04-10T05:53:02.337Z,77.35
2023-04-10T05:55:08.037Z,77.63
2023-04-10T05:57:10.399Z,77.96
2023-04-10T05:59:11.943Z,77.73
2023-04-10T06:01:13.836Z,78.02
2023-04-10T06:03:15.698Z,77.97
2023-04-10T06:05:17.629Z,78.19
2023-04-10T06:07:24.896Z,78.12
2023-04-10T06:09:26.897Z,78.35
2023-04-10T06:11:28.711Z,78.47
2023-04-10T06:13:30.768Z,79.13
2023-04-10T06:15:32.385Z,78.76
2023-04-10T06:17:33.963Z,79.34
2023-04-10T06:19:35.606Z,79.53
2023-04-10T06:21:37.374Z,79.11
2023-04-10T06:23:40.626Z,78.92
2023-04-10T06:25:42.264Z,79.08
2023-04-10T06:27:44.058Z,79.52
2023-04-10T06:29:45.892Z,78.91
2023-04-10T06:31:47.547Z,78.89
2023-04-10T06:33:49.719Z,78.84
2023-04-10T06:35:51.899Z,78.84
2023-04-10T06:37:53.694Z,78.49
2023-04-10T06:40:04.097Z,78.07
2023-04-10T06:42:05.965Z,78.78
2023-04-10T06:44:07.812Z,78.47
2023-04-10T06:46:09.758Z,77.34
2023-04-10T06:48:11.855Z,78.06
2023-04-10T06:50:13.480Z,77.71
2023-04-10T06:52:15.571Z,77.05
2023-04-10T06:54:17.110Z,77.62
2023-04-10T06:56:20.214Z,77.16
2023-04-10T06:58:21.929Z,77.34
2023-04-10T07:00:24.013Z,76.56
2023-04-10T07:02:25.976Z,76.41
2023-04-10T07:04:27.781Z,77.35
2023-04-10T07:06:29.770Z,75.89
2023-04-10T07:08:32.032Z,75.71
2023-04-10T07:10:33.611Z,75.61
2023-04-10T07:12:36.665Z,75.31
2023-04-10T07:14:38.541Z,75.00
2023-04-10T07:16:40.245Z,73.79
2023-04-10T07:18:41.938Z,73.56
2023-04-10T07:20:44.107Z,73.86
2023-04-10T07:22:45.957Z,72.62
2023-04-10T07:24:47.765Z,73.04
2023-04-10T07:26:49.813Z,72.00
2023-04-10T07:28:53.179Z,73.19
2023-04-10T07:30:55.217Z,71.56
2023-04-10T07:32:57.336Z,71.04
2023-04-10T07:34:59.287Z,70.73
2023-04-10T07:37:00.929Z,71.18
2023-04-10T07:39:02.535Z,70.29
2023-04-10T07:41:05.126Z,69.28
2023-04-10T07:43:07.628Z,69.15
2023-04-10T07:45:12.359Z,69.48
2023-04-10T07:47:14.567Z,68.56
2023-04-10T07:49:16.268Z,68.36
2023-04-10T07:51:17.890Z,67.53
2023-04-10T07:53:19.519Z,67.80
2023-04-10T07:55:21.741Z,67.87
2023-04-10T07:57:23.545Z,67.25
2023-04-10T07:59:25.187Z,67.37
2023-04-10T08:01:30.533Z,66.96
2023-04-10T08:03:38.723Z,66.31
2023-04-10T08:05:40.400Z,65.32
2023-04-10T08:07:42.296Z,64.76
2023-04-10T08:09:43.892Z,64.70
2023-04-10T08:11:45.537Z,63.23
2023-04-10T08:13:47.547Z,62.59
2023-04-10T08:15:49.632Z,62.23
2023-04-10T08:17:52.583Z,61.79
2023-04-10T08:19:54.399Z,62.02
2023-04-10T08:21:55.966Z,60.91
2023-04-10T08:23:59.557Z,59.60
2023-04-10T08:26:01.627Z,59.75
2023-04-10T08:28:03.262Z,59.79
2023-04-10T08:30:06.407Z,60.07
2023-04-10T08:32:10.897Z,59.84
2023-04-10T08:34:14.230Z,58.73
2023-04-10T08:36:19.601Z,59.30
2023-04-10T08:38:22.348Z,58.71
2023-04-10T08:40:24.094Z,58.75
2023-04-10T08:42:25.712Z,58.99
2023-04-10T08:44:27.735Z,57.73
2023-04-10T08:46:34.078Z,57.76
2023-04-10T08:48:39.141Z,58.21
2023-04-10T08:50:46.709Z,59.02
2023-04-10T08:52:51.841Z,57.06
2023-04-10T08:54:55.336Z,56.38
2023-04-10T08:56:57.202Z,56.41
2023-04-10T08:58:59.765Z,56.28
2023-04-10T09:01:02.361Z,55.73
2023-04-10T09:03:04.593Z,55.58
2023-04-10T09:05:10.505Z,54.53
2023-04-10T09:07:13.533Z,55.13
2023-04-10T09:09:15.453Z,55.32
2023-04-10T09:11:17.262Z,54.19
2023-04-10T09:13:35.957Z,57.07
2023-04-10T09:15:55.998Z,56.95
2023-04-10T09:18:00.030Z,52.86
2023-04-10T09:20:02.115Z,53.01
2023-04-10T09:22:04.177Z,52.77
2023-04-10T09:24:08.122Z,52.68
2023-04-10T09:26:23.951Z,54.97
2023-04-10T09:28:25.546Z,52.12
2023-04-10T09:30:33.570Z,53.74
2023-04-10T09:32:41.043Z,52.18
2023-04-10T09:34:53.366Z,53.13
2023-04-10T09:36:56.641Z,49.45
2023-04-10T09:38:58.759Z,49.93
2023-04-10T09:41:08.762Z,52.13
2023-04-10T09:43:21.683Z,52.68
2023-04-10T09:45:23.407Z,48.85
2023-04-10T09:47:25.598Z,48.66
2023-04-10T09:49:27.851Z,48.41
2023-04-10T09:51:31.605Z,47.67
2023-04-10T09:53:48.816Z,51.39
2023-04-10T09:55:50.720Z,47.52
2023-04-10T09:57:55.915Z,49.31
2023-04-10T09:59:58.980Z,48.72
2023-04-10T10:02:01.139Z,49.33
2023-04-10T10:04:04.489Z,47.86
2023-04-10T10:06:07.887Z,48.03
2023-04-10T10:08:11.206Z,47.92
2023-04-10T10:10:13.065Z,47.23
2023-04-10T10:12:19.642Z,47.76
2023-04-10T10:14:26.069Z,47.90
2023-04-10T10:16:34.327Z,48.35
2023-04-10T10:18:43.972Z,47.81
2023-04-10T10:20:46.727Z,46.16
2023-04-10T10:22:50.710Z,45.88
2023-04-10T10:24:54.614Z,46.46
2023-04-10T10:26:59.699Z,46.71
2023-04-10T10:29:03.877Z,46.46
2023-04-10T10:31:07.641Z,46.68
2023-04-10T10:33:12.758Z,45.64
2023-04-10T10:35:14.797Z,44.98
2023-04-10T10:37:18.467Z,45.34
2023-04-10T10:39:32.245Z,47.55
2023-04-10T10:41:42.921Z,46.36
2023-04-10T10:43:52.602Z,46.72
2023-04-10T10:46:02.361Z,45.68
2023-04-10T10:48:06.091Z,44.91
2023-04-10T10:50:08.801Z,43.13
2023-04-10T10:52:10.436Z,44.08
2023-04-10T10:54:42.265Z,47.63
2023-04-10T10:56:49.109Z,43.70
2023-04-10T10:58:52.580Z,43.26
2023-04-10T11:01:19.056Z,47.72
2023-04-10T11:03:31.649Z,45.80
2023-04-10T11:05:49.619Z,47.03
2023-04-10T11:08:08.171Z,46.39
2023-04-10T11:10:09.926Z,42.48
2023-04-10T11:12:11.731Z,42.80
2023-04-10T11:14:19.313Z,42.93
2023-04-10T11:16:21.540Z,42.70
2023-04-10T11:19:06.406Z,45.77
2023-04-10T11:21:17.460Z,43.29
2023-04-10T11:23:19.391Z,41.70
2023-04-10T11:25:20.979Z,42.82
2023-04-10T11:27:40.235Z,45.52
2023-04-10T11:29:41.897Z,42.60
2023-04-10T11:31:44.457Z,41.27
2023-04-10T11:33:47.357Z,41.64
2023-04-10T11:35:49.198Z,42.00
2023-04-10T11:37:52.791Z,42.03
2023-04-10T11:40:04.393Z,44.79
2023-04-10T11:42:06.240Z,40.54
2023-04-10T11:44:10.818Z,39.60
2023-04-10T11:46:12.861Z,40.64
2023-04-10T11:48:15.359Z,40.39
2023-04-10T11:50:17.147Z,39.46
2023-04-10T11:52:25.162Z,41.30
2023-04-10T11:54:29.227Z,41.34
2023-04-10T11:56:31.118Z,39.48
2023-04-10T11:58:33.380Z,40.08
2023-04-10T12:02:50.503Z,43.01
2023-04-10T12:04:58.811Z,42.57
2023-04-10T12:07:00.634Z,40.21
2023-04-10T12:09:13.482Z,42.87
2023-04-10T12:11:18.961Z,40.51
2023-04-10T12:13:25.275Z,41.16
2023-04-10T12:15:28.066Z,38.95
2023-04-10T12:17:30.125Z,39.09
2023-04-10T12:19:33.145Z,38.89
2023-04-10T12:21:36.726Z,39.20
2023-04-10T12:23:39.485Z,39.69
2023-04-10T12:25:42.137Z,39.83
2023-04-10T12:27:49.319Z,41.42
2023-04-10T12:29:52.152Z,39.44
2023-04-10T12:31:53.758Z,39.03
2023-04-10T12:33:55.519Z,39.21
2023-04-10T12:35:57.117Z,39.10
2023-04-10T12:37:58.813Z,38.88
2023-04-10T12:40:06.096Z,40.41
2023-04-10T12:42:11.988Z,39.28
2023-04-10T12:44:15.358Z,39.38
2023-04-10T12:46:24.955Z,40.84
2023-04-10T12:48:26.582Z,39.34
2023-04-10T12:50:28.580Z,37.60
2023-04-10T12:52:30.430Z,37.74
2023-04-10T12:54:33.597Z,38.39
2023-04-10T12:56:41.440Z,40.06
2023-04-10T12:58:43.095Z,37.02
2023-04-10T13:00:46.316Z,37.17
2023-04-10T13:02:49.114Z,36.98
2023-04-10T13:04:51.449Z,37.52
2023-04-10T13:06:53.361Z,37.72
2023-04-10T13:08:55.414Z,37.96
2023-04-10T13:10:57.482Z,38.17
2023-04-10T13:12:59.540Z,36.66
2023-04-10T13:15:01.921Z,37.48
2023-04-10T13:17:04.884Z,37.80
2023-04-10T13:19:06.689Z,37.74
2023-04-10T13:21:08.812Z,38.12
2023-04-10T13:23:10.668Z,37.48
2023-04-10T13:25:13.030Z,37.16
2023-04-10T13:27:14.790Z,37.47
2023-04-10T13:29:16.436Z,36.77
2023-04-10T13:31:18.729Z,37.25
2023-04-10T13:33:21.837Z,36.66
2023-04-10T13:35:23.917Z,37.21
2023-04-10T13:37:25.510Z,38.06
2023-04-10T13:39:30.777Z,38.91
2023-04-10T13:41:32.366Z,37.17
2023-04-10T13:43:34.471Z,37.25
2023-04-10T13:45:36.205Z,35.63
2023-04-10T13:47:37.915Z,36.90
2023-04-10T13:49:41.038Z,36.80
2023-04-10T13:51:42.794Z,36.82
2023-04-10T13:53:44.440Z,36.82
2023-04-10T13:55:46.502Z,37.13
2023-04-10T13:57:48.300Z,36.79
2023-04-10T13:59:49.925Z,36.69
2023-04-10T14:01:51.612Z,37.29
2023-04-10T14:03:53.371Z,36.11
2023-04-10T14:05:56.585Z,36.73
2023-04-10T14:07:58.218Z,37.71
2023-04-10T14:09:59.877Z,37.25
2023-04-10T14:12:01.711Z,36.34
2023-04-10T14:14:03.410Z,36.80
2023-04-10T14:16:05.550Z,37.59
2023-04-10T14:18:07.521Z,37.70
2023-04-10T14:20:10.082Z,36.83
2023-04-10T14:22:13.451Z,37.92
2023-04-10T14:24:15.264Z,37.16
2023-04-10T14:26:17.454Z,37.08
2023-04-10T14:28:19.409Z,36.79
2023-04-10T14:30:21.202Z,37.63
2023-04-10T14:32:23.319Z,36.74
2023-04-10T14:34:24.954Z,37.38
2023-04-10T14:36:26.537Z,36.74
2023-04-10T14:38:29.829Z,36.94
2023-04-10T14:40:31.600Z,36.97
2023-04-10T14:42:33.491Z,37.91
2023-04-10T14:44:35.314Z,38.25
2023-04-10T14:46:37.227Z,38.26
2023-04-10T14:48:38.894Z,38.01
2023-04-10T14:50:40.535Z,38.27
2023-04-10T14:52:42.415Z,37.72
2023-04-10T14:54:45.500Z,37.72
2023-04-10T14:56:47.302Z,37.75
2023-04-10T14:58:49.164Z,37.06
2023-04-10T15:00:51.081Z,37.38
2023-04-10T15:02:52.956Z,36.21
2023-04-10T15:04:54.928Z,36.29
2023-04-10T15:06:56.506Z,36.48
2023-04-10T15:08:58.279Z,35.79
2023-04-10T15:11:01.456Z,35.85
2023-04-10T15:13:03.227Z,35.40
2023-04-10T15:17:07.165Z,37.01
2023-04-10T15:19:08.844Z,36.17
2023-04-10T15:21:10.454Z,37.10
2023-04-10T15:23:12.140Z,37.16
2023-04-10T15:25:13.748Z,36.80
2023-04-10T15:27:18.826Z,36.13
2023-04-10T15:29:20.434Z,36.60
2023-04-10T15:31:22.975Z,36.93
2023-04-10T15:33:24.571Z,37.18
2023-04-10T15:35:26.462Z,37.71
2023-04-10T15:37:28.279Z,37.83
2023-04-10T15:39:29.870Z,37.36
2023-04-10T15:41:32.376Z,37.54
2023-04-10T15:43:35.524Z,37.23
2023-04-10T15:45:38.753Z,37.76
2023-04-10T15:47:40.457Z,37.19
2023-04-10T15:49:42.153Z,37.90
2023-04-10T15:51:43.859Z,37.69
2023-04-10T15:53:45.717Z,38.07
2023-04-10T15:55:47.573Z,38.86
2023-04-10T15:57:50.658Z,40.37
2023-04-10T15:59:53.754Z,40.58
2023-04-10T16:01:56.151Z,41.08
2023-04-10T16:03:58.109Z,40.84
2023-04-10T16:06:00.048Z,41.09
2023-04-10T16:08:02.679Z,41.45
2023-04-10T16:10:04.716Z,41.51
2023-04-10T16:12:06.690Z,42.19
2023-04-10T16:14:08.289Z,42.02
2023-04-10T16:16:15.689Z,42.83
2023-04-10T16:18:17.664Z,42.45
2023-04-10T16:20:19.826Z,42.80
2023-04-10T16:22:21.632Z,42.63
2023-04-10T16:24:23.525Z,42.77
2023-04-10T16:26:25.409Z,43.33
2023-04-10T16:28:27.342Z,43.32
2023-04-10T16:30:28.954Z,43.42
2023-04-10T16:32:32.819Z,43.99
2023-04-10T16:34:34.878Z,44.03
2023-04-10T16:36:37.519Z,43.53
2023-04-10T16:38:39.316Z,44.63
2023-04-10T16:40:41.206Z,44.34
2023-04-10T16:42:44.254Z,44.42
2023-04-10T16:44:46.371Z,44.71
2023-04-10T16:46:48.548Z,44.98
2023-04-10T16:48:51.695Z,45.15
2023-04-10T16:50:53.273Z,45.22
2023-04-10T16:52:55.243Z,45.63
2023-04-10T16:54:57.084Z,45.58
2023-04-10T16:56:58.873Z,46.27
2023-04-10T16:59:00.456Z,46.18
2023-04-10T17:01:13.424Z,46.53
2023-04-10T17:03:15.490Z,46.58
2023-04-10T17:05:18.785Z,46.71
2023-04-10T17:07:20.342Z,47.23
2023-04-10T17:09:22.394Z,46.98
2023-04-10T17:11:24.314Z,47.21
2023-04-10T17:13:25.932Z,47.60
2023-04-10T17:15:27.831Z,47.31
2023-04-10T17:17:29.515Z,48.00
2023-04-10T17:19:31.737Z,47.88
2023-04-10T17:21:35.424Z,48.07
2023-04-10T17:23:36.986Z,48.27
2023-04-10T17:25:39.387Z,48.67
2023-04-10T17:27:41.076Z,48.78
2023-04-10T17:29:42.780Z,48.67
2023-04-10T17:31:44.958Z,48.54
2023-04-10T17:33:46.511Z,48.96
2023-04-10T17:35:49.695Z,49.30
2023-04-10T17:37:53.249Z,49.28
2023-04-10T17:39:54.804Z,49.09
2023-04-10T17:41:56.468Z,49.67
2023-04-10T17:43:58.335Z,49.33
2023-04-10T17:46:00.141Z,49.10
2023-04-10T17:48:01.830Z,48.72
2023-04-10T17:50:04.489Z,48.65
2023-04-10T17:52:06.160Z,48.07
2023-04-10T17:54:10.042Z,48.39
2023-04-10T17:56:18.013Z,48.37
2023-04-10T17:58:19.584Z,48.57
2023-04-10T18:00:22.108Z,48.48
2023-04-10T18:02:23.777Z,48.78
2023-04-10T18:04:25.562Z,48.79
2023-04-10T18:06:27.171Z,48.71
2023-04-10T18:08:29.023Z,48.84
2023-04-10T18:10:32.366Z,49.04
2023-04-10T18:12:34.419Z,48.90
2023-04-10T18:14:36.277Z,49.19
2023-04-10T18:16:38.075Z,49.35
2023-04-10T18:18:40.083Z,49.21
2023-04-10T18:20:41.888Z,49.51
2023-04-10T18:22:43.707Z,49.73
2023-04-10T18:24:46.472Z,49.64
2023-04-10T18:26:50.245Z,49.73
2023-04-10T18:28:52.083Z,50.00
2023-04-10T18:30:53.881Z,50.11
2023-04-10T18:32:55.589Z,50.06
2023-04-10T18:34:57.463Z,50.27
2023-04-10T18:36:59.374Z,50.46
2023-04-10T18:39:00.920Z,50.69
2023-04-10T18:41:02.508Z,50.42
2023-04-10T18:43:06.267Z,50.65
2023-04-10T18:45:08.929Z,50.36
2023-04-10T18:47:10.761Z,50.75
2023-04-10T18:49:12.613Z,50.82
2023-04-10T18:51:14.439Z,50.95
2023-04-10T18:53:16.227Z,50.90
2023-04-10T18:55:18.259Z,50.84
2023-04-10T18:57:20.032Z,51.25
2023-04-10T18:59:23.557Z,50.99
2023-04-10T19:01:25.493Z,51.28
2023-04-10T19:03:27.363Z,51.39
2023-04-10T19:05:30.828Z,51.59
2023-04-10T19:07:32.824Z,51.51
2023-04-10T19:09:34.740Z,51.61
2023-04-10T19:11:36.321Z,51.58
2023-04-10T19:13:38.717Z,51.92
2023-04-10T19:15:44.656Z,51.61
2023-04-10T19:17:46.362Z,51.61
2023-04-10T19:19:47.955Z,52.02
2023-04-10T19:21:49.599Z,52.02
2023-04-10T19:23:51.210Z,51.84
2023-04-10T19:25:53.394Z,51.99
2023-04-10T19:27:55.089Z,52.47
2023-04-10T19:29:56.733Z,52.34
2023-04-10T19:31:59.616Z,52.14
2023-04-10T19:34:01.389Z,52.24
2023-04-10T19:36:03.346Z,52.74
2023-04-10T19:38:05.166Z,52.35
2023-04-10T19:40:08.008Z,52.92
2023-04-10T19:42:09.571Z,52.69
2023-04-10T19:44:11.372Z,52.54
2023-04-10T19:46:16.799Z,52.35
2023-04-10T19:48:20.335Z,52.67
2023-04-10T19:50:22.654Z,52.43
2023-04-10T19:52:24.634Z,52.27
2023-04-10T19:54:26.354Z,52.40
2023-04-10T19:56:28.287Z,52.23
2023-04-10T19:58:39.930Z,52.66
2023-04-10T20:00:43.156Z,52.70
2023-04-10T20:02:44.866Z,52.67
2023-04-10T20:04:49.044Z,52.53
2023-04-10T20:06:50.621Z,52.88
2023-04-10T20:08:52.363Z,52.84
2023-04-10T20:10:56.086Z,52.70
2023-04-10T20:12:59.052Z,52.41
2023-04-10T20:15:01.228Z,53.16
2023-04-10T20:17:02.913Z,53.19
2023-04-10T20:19:05.792Z,52.52
2023-04-10T20:21:09.443Z,52.85
2023-04-10T20:23:11.477Z,52.69
2023-04-10T20:25:13.139Z,53.05
2023-04-10T20:27:15.517Z,53.10
2023-04-10T20:29:17.574Z,52.64
2023-04-10T20:31:19.536Z,52.91
2023-04-10T20:33:21.716Z,52.78
2023-04-10T20:35:23.760Z,52.76
2023-04-10T20:37:26.809Z,52.85
2023-04-10T20:39:28.649Z,52.75
2023-04-10T20:41:30.257Z,52.67
2023-04-10T20:43:32.532Z,52.61
2023-04-10T20:45:34.622Z,52.66
2023-04-10T20:47:36.684Z,53.05
2023-04-10T20:49:38.283Z,52.60
2023-04-10T20:51:40.092Z,52.90
2023-04-10T20:53:43.233Z,52.58
2023-04-10T20:55:44.812Z,53.17
2023-04-10T20:57:46.634Z,52.63
2023-04-10T20:59:48.486Z,52.80
2023-04-10T21:01:50.190Z,52.54
2023-04-10T21:03:52.054Z,52.83
2023-04-10T21:05:54.172Z,52.81
2023-04-10T21:07:56.343Z,52.98
2023-04-10T21:09:59.401Z,52.93
2023-04-10T21:12:01.085Z,52.79
2023-04-10T21:14:02.699Z,52.86
2023-04-10T21:16:05.163Z,52.95
2023-04-10T21:18:06.842Z,52.83
2023-04-10T21:20:09.433Z,52.90
2023-04-10T21:22:11.229Z,52.90
2023-04-10T21:24:12.915Z,52.67
2023-04-10T21:26:16.322Z,53.24
2023-04-10T21:28:19.080Z,52.82
2023-04-10T21:30:20.940Z,53.04
2023-04-10T21:32:22.708Z,52.96
2023-04-10T21:34:24.593Z,53.03
2023-04-10T21:36:26.204Z,53.33
2023-04-10T21:38:28.005Z,52.84
2023-04-10T21:40:29.657Z,53.17
2023-04-10T21:42:33.307Z,53.10
2023-04-10T21:44:34.966Z,53.17
2023-04-10T21:46:36.804Z,52.97
2023-04-10T21:48:38.879Z,53.39
2023-04-10T21:50:40.647Z,53.13
2023-04-10T21:52:42.268Z,53.40
2023-04-10T21:54:44.232Z,53.13
2023-04-10T21:56:46.050Z,52.95
2023-04-10T21:58:49.578Z,53.41
2023-04-10T22:00:51.774Z,53.53
2023-04-10T22:02:53.886Z,53.40
2023-04-10T22:04:55.562Z,53.68
2023-04-10T22:06:57.356Z,53.44
2023-04-10T22:08:59.188Z,53.52
2023-04-10T22:11:01.130Z,53.74
2023-04-10T22:13:02.779Z,53.74
2023-04-10T22:15:07.627Z,53.82
2023-04-10T22:17:09.561Z,53.91
2023-04-10T22:19:11.545Z,53.82
2023-04-10T22:21:13.511Z,54.03
2023-04-10T22:23:15.128Z,53.70
2023-04-10T22:25:17.158Z,54.03
2023-04-10T22:27:18.748Z,54.15
2023-04-10T22:29:20.387Z,54.05
2023-04-10T22:31:23.473Z,54.09
2023-04-10T22:33:25.406Z,54.30
2023-04-10T22:35:27.109Z,54.46
2023-04-10T22:37:29.002Z,54.18
2023-04-10T22:39:30.849Z,54.14
2023-04-10T22:41:33.288Z,54.35
2023-04-10T22:43:35.099Z,54.46
2023-04-10T22:45:36.957Z,53.97
2023-04-10T22:47:40.187Z,54.51
2023-04-10T22:49:42.234Z,54.64
2023-04-10T22:51:44.078Z,54.23
2023-04-10T22:53:46.305Z,54.63
2023-04-10T22:55:48.405Z,54.93
2023-04-10T22:57:50.010Z,54.86
2023-04-10T22:59:51.607Z,55.11
2023-04-10T23:01:53.547Z,54.68
2023-04-10T23:03:57.115Z,55.01
2023-04-10T23:05:58.663Z,54.60
2023-04-10T23:08:00.253Z,55.00
2023-04-10T23:10:02.112Z,55.21
2023-04-10T23:12:04.025Z,55.07
2023-04-10T23:14:05.996Z,55.37
2023-04-10T23:16:08.980Z,55.01
2023-04-10T23:18:10.935Z,55.30
2023-04-10T23:20:14.265Z,55.02
2023-04-10T23:22:15.916Z,55.41
2023-04-10T23:24:17.775Z,55.27
2023-04-10T23:26:20.496Z,55.36
2023-04-10T23:28:22.108Z,55.24
2023-04-10T23:30:24.180Z,55.42
2023-04-10T23:32:26.086Z,55.50
2023-04-10T23:34:27.696Z,55.13
2023-04-10T23:36:30.648Z,55.37
2023-04-10T23:38:32.754Z,55.53
2023-04-10T23:40:34.758Z,55.73
2023-04-10T23:42:36.611Z,55.64
2023-04-10T23:44:38.770Z,55.33
2023-04-10T23:46:40.381Z,55.62
2023-04-10T23:48:41.999Z,55.19
2023-04-10T23:50:43.614Z,55.55
2023-04-10T23:52:49.705Z,55.22
2023-04-10T23:54:51.357Z,55.16
2023-04-10T23:56:53.163Z,55.55
2023-04-10T23:58:55.415Z,55.33
